Weather observations for the past three days for
Slayton Municipal Airport
Imperial (Metric)
Date Time (cdt) Wind (mph) Vis. (mi.) Weather Sky Cond. Temperature (ºF) Relative Humidity Wind Chill (°F) Heat Index (°F) Pressure Precipitation (in)
Air Dwpt 6 hour altimeter (in) sea level (mb) 1 hr 3 hr 6 hr
Max. Min.
04 20:33 NW 10 10.00 Fair CLR 49.1 23.9 37% 45 29.75 0.0
04 20:13 NW 13 10.00 Fair CLR 50.4 24.6 37% 29.74 0.0
04 19:53 NW 14 10.00 Fair CLR 51.4 24.4 35% 29.74 0.0
04 19:33 NW 14 G 24 10.00 Fair CLR 51.3 23.9 34% 29.74 0.0
04 19:13 NW 21 G 26 10.00 Fair and Breezy CLR 52 24.8 35% 29.73 0.0
04 18:53 NW 20 G 25 10.00 Partly Cloudy SCT060 52.3 26.1 62.2 51.8 36% 29.73 0.0
04 18:33 NW 21 G 25 10.00 Fair and Breezy CLR 52 26.6 37% 29.73 0.0
04 18:13 NW 23 G 29 10.00 Fair and Breezy CLR 52.9 26.4 36% 29.73 0.0
04 17:53 NW 30 G 36 10.00 Partly Cloudy and Windy SCT060 53.4 27.7 37% 29.72 0.0
04 17:33 NW 26 G 31 10.00 Partly Cloudy and Windy SCT060 54.9 29.7 38% 29.71 0.0
04 17:13 W 26 G 36 10.00 Fair and Windy CLR 55.6 27.7 34% 29.7 0.0
04 16:53 NW 29 G 37 10.00 Fair and Windy CLR 56.5 27.3 33% 29.7 0.0
04 16:33 W 31 G 38 10.00 Fair and Windy CLR 56.8 27.5 33% 29.69 0.0
04 16:13 NW 26 G 35 10.00 Partly Cloudy and Windy SCT120 57.4 27.9 32% 29.69 0.0
04 15:53 NW 26 G 36 10.00 Partly Cloudy and Windy SCT120 58.6 27.3 30% 29.69 0.0
04 15:33 NW 26 G 33 10.00 Partly Cloudy and Windy SCT110 58.3 27.5 31% 29.68 0.0
04 15:13 NW 26 G 37 10.00 Partly Cloudy and Windy SCT110 58.6 27.3 30% 29.68 0.0
04 14:53 NW 23 G 32 10.00 Fair and Breezy CLR 57.9 28.9 33% 29.67 0.0
04 14:33 NW 26 G 33 10.00 Fair and Windy CLR 59.5 28.9 31% 29.68 0.0
04 14:13 NW 28 G 33 10.00 Fair and Windy CLR 59.5 28 30% 29.67 0.0
04 13:53 NW 23 G 33 10.00 Fair and Breezy CLR 58.8 25.9 28% 29.67 0.0
04 13:33 NW 26 G 36 10.00 Fair and Windy CLR 60.1 23.2 24% 29.65 0.0
04 13:13 NW 31 G 37 10.00 Fair and Windy CLR 62.1 23.7 23% 29.64 0.0
04 12:53 NW 24 G 29 10.00 Fair and Breezy CLR 61 29.1 61.3 53.6 30% 29.63 0.0
04 12:33 NW 25 G 31 10.00 Fair and Breezy CLR 60.6 30.6 32% 29.64 0.0
04 12:13 NW 21 G 33 10.00 Fair and Breezy CLR 60.1 30.9 33% 29.63 0.0
04 11:53 NW 21 G 31 10.00 Fair and Breezy CLR 60.4 28.2 29% 29.62 0.0
04 11:33 NW 29 G 33 10.00 Fair and Windy CLR 61.2 28.9 30% 29.61 0.0
04 11:13 NW 24 G 30 10.00 Fair and Breezy CLR 60.8 31.3 33% 29.6 0.0
04 10:53 NW 20 G 31 10.00 Fair CLR 59.5 31.3 34% 29.6 0.0
04 10:33 NW 21 G 28 10.00 Fair and Breezy CLR 59.5 31.8 35% 29.6 0.0
04 10:13 NW 22 G 28 10.00 Partly Cloudy and Breezy SCT120 59.2 31.6 35% 29.6 0.0
04 09:53 NW 15 G 28 10.00 Overcast OVC120 57.6 31.5 37% 29.6 0.0
04 09:33 NW 18 G 23 10.00 Mostly Cloudy BKN120 56.5 30.2 37% 29.59 0.0
04 09:13 NW 16 G 24 10.00 Mostly Cloudy BKN120 57 31.8 39% 29.59 0.0
04 08:53 N 16 G 22 10.00 Mostly Cloudy BKN120 56.7 34.9 44% 29.59 0.0
04 08:33 NW 14 G 21 10.00 Partly Cloudy SCT120 56.3 39.9 54% 29.58 0.0
04 08:13 NW 10 10.00 Partly Cloudy SCT120 55.6 39.9 56% 29.58 0.0
04 07:53 NW 17 10.00 Fair CLR 55.9 39.2 54% 29.57 0.0
04 07:33 W 16 10.00 Fair CLR 54.3 37 52% 29.56 0.0
04 07:13 W 15 G 18 10.00 Fair CLR 54.3 36 50% 29.55 0.0
04 06:53 W 14 10.00 Fair CLR 53.1 35.8 54.3 48.4 52% 29.53 0.0
04 06:33 W 13 G 24 10.00 Fair CLR 54.1 36.1 51% 29.53 0.0
04 06:13 W 16 10.00 Fair CLR 52.7 35.4 52% 29.53 0.0
04 05:53 SW 21 10.00 Fair and Breezy CLR 53.1 34.7 50% 29.51 0.0
04 05:33 SW 22 10.00 Fair and Breezy CLR 53.1 33.6 48% 29.51 0.0
04 04:53 SW 23 10.00 Fair and Breezy CLR 53.6 32.2 44% 29.53 0.0
04 04:33 SW 22 10.00 Fair and Breezy CLR 52.3 32.2 46% 29.53 0.0
04 04:13 SW 17 10.00 Fair CLR 50.9 32.9 50% 29.55 0.0
04 03:53 SW 10 10.00 Fair CLR 48.7 32.9 54% 45 29.55 0.0
04 03:33 SW 9 10.00 Fair CLR 48.6 32.9 55% 45 29.56 0.0
04 03:13 SW 12 10.00 Fair CLR 49.6 32.4 52% 46 29.57 0.0
04 02:53 SW 10 10.00 Fair CLR 52.5 32 46% 29.57 0.0
04 02:33 SW 12 10.00 Fair CLR 51.1 32.4 49% 29.58 0.0
04 02:13 SW 12 10.00 Fair CLR 49.1 32 52% 45 29.59 0.0
04 01:53 SW 7 10.00 Fair CLR 49.3 32 52% 47 29.6 0.0
04 01:33 SW 9 10.00 Fair CLR 50 32 50% 47 29.62 0.0
04 01:13 SW 9 10.00 Fair CLR 50.7 32 49% 29.63 0.0
04 00:53 SW 10 10.00 Fair CLR 52.7 32.2 69.8 52.7 46% 29.63 0.0
04 00:33 SW 10 10.00 Fair CLR 53.6 32.9 46% 29.64 0.0
04 00:13 SW 9 10.00 Fair CLR 55.6 33.1 43% 29.64 0.0
03 23:53 SW 12 10.00 Fair CLR 54.9 34 45% 29.66 0.0
03 23:33 SW 12 10.00 Fair CLR 56.1 34.5 44% 29.67 0.0
03 23:13 SW 12 10.00 Fair CLR 54.7 34 46% 29.68 0.0
03 22:53 SW 9 10.00 Fair CLR 54.7 33.4 45% 29.69 0.0
03 22:33 SW 10 10.00 Fair CLR 55.2 32.9 43% 29.69 0.0
03 22:13 SW 10 10.00 Partly Cloudy SCT110 56.3 32.2 40% 29.7 0.0
03 21:53 SW 7 10.00 Fair CLR 56.1 32.9 42% 29.71 0.0
03 21:33 W 9 10.00 Partly Cloudy SCT110 61.9 31.5 32% 29.71 0.0
03 21:13 W 9 10.00 Partly Cloudy SCT110 59.9 32 35% 29.72 0.0
03 20:53 SW 7 10.00 Fair CLR 61 31.8 33% 29.72 0.0
03 20:33 SW 9 10.00 Fair CLR 61.9 31.3 32% 29.72 0.0
03 20:13 SW 7 10.00 Fair CLR 65.3 27 24% 29.71 0.0
03 19:53 W 7 10.00 Fair CLR 68 23.9 19% 29.72 0.0
03 19:33 W 12 G 20 10.00 Fair CLR 68.9 23.7 18% 29.73 0.0
03 19:13 W 14 G 22 10.00 Fair CLR 69.8 28.4 21% 29.73 0.0
03 18:53 W 16 10.00 Fair CLR 70 24.6 71.8 65.1 18% 29.73 0.0
03 18:33 W 15 G 21 10.00 Fair CLR 70.7 27.7 20% 29.74 0.0
03 18:13 W 15 10.00 Fair CLR 70.7 27 19% 29.74 0.0
03 17:53 W 15 G 20 10.00 Fair CLR 70.9 23.7 17% 29.75 0.0
03 17:33 W 16 G 22 10.00 Fair CLR 71.1 25.3 18% 29.75 0.0
03 17:13 W 17 G 24 10.00 Fair CLR 70.9 26.4 19% 29.75 0.0
03 16:53 W 16 G 21 10.00 Fair CLR 71.4 26.6 19% 29.76 0.0
03 16:33 NW 15 G 22 10.00 Fair CLR 71.2 28 20% 29.77 0.0
03 16:13 W 12 G 18 10.00 Fair CLR 70.7 28.8 21% 29.77 0.0
03 15:53 W 18 G 23 10.00 Fair CLR 71.1 27.9 20% 29.78 0.0
03 15:33 W 17 G 28 10.00 Fair CLR 70.2 29.8 22% 29.79 0.0
03 15:13 NW 17 G 22 10.00 Fair CLR 70 31.1 24% 29.8 0.0
03 14:53 W 16 G 21 10.00 Fair CLR 69.6 33.3 26% 29.8 0.0
03 14:33 NW 12 G 21 10.00 Fair CLR 68.7 33.1 27% 29.81 0.0
03 14:13 N 10 G 16 10.00 Fair CLR 68.2 32.7 27% 29.82 0.0
03 13:53 NW 13 G 24 10.00 Fair CLR 67.6 32.4 27% 29.82 0.0
03 13:33 NW 12 G 25 10.00 Fair CLR 66.6 32.9 29% 29.83 0.0
03 13:13 NW 14 G 20 10.00 Fair CLR 66.4 33.3 29% 29.84 0.0
03 12:53 N 14 G 24 10.00 Fair CLR 65.7 33.1 65.7 50.4 30% 29.85 0.0
03 12:33 N 15 G 23 10.00 Fair CLR 65.1 34.3 32% 29.85 0.0
03 12:13 NW 15 G 23 10.00 Fair CLR 64.8 35.4 34% 29.86 0.0
03 11:53 NW 16 G 24 10.00 Fair CLR 63.5 35.1 35% 29.86 0.0
03 11:33 N 21 G 26 10.00 Fair and Breezy CLR 63.5 35.8 36% 29.86 0.0
03 11:13 NW 18 10.00 Fair CLR 63 36.3 37% 29.86 0.0
03 10:53 N 18 G 25 10.00 Fair CLR 62.6 36 37% 29.86 0.0
03 10:33 NW 16 G 23 10.00 Fair CLR 61.9 36.9 40% 29.86 0.0
03 10:13 N 17 G 24 10.00 Fair CLR 61 37.6 42% 29.86 0.0
03 09:53 NW 14 G 23 10.00 Fair CLR 59.9 37.2 43% 29.86 0.0
03 09:33 NW 14 G 21 10.00 Fair CLR 59 37.4 45% 29.85 0.0
03 09:13 NW 16 G 23 10.00 Fair CLR 57.7 37.2 46% 29.85 0.0
03 08:53 NW 16 G 23 10.00 Fair CLR 56.8 36.9 47% 29.85 0.0
03 08:33 NW 17 10.00 Fair CLR 55.2 36.9 50% 29.85 0.0
03 08:13 NW 15 G 24 10.00 Fair CLR 54 36.3 51% 29.84 0.0
03 07:53 NW 16 G 22 10.00 Fair CLR 53.4 35.8 51% 29.83 0.0
03 07:33 NW 14 10.00 Fair CLR 52 35.1 53% 29.82 0.0
03 06:53 NW 15 10.00 Fair CLR 50.2 35.1 59 49.1 56% 29.8 0.0
03 06:33 NW 16 10.00 Fair CLR 49.6 34.7 57% 44 29.79 0.0
03 06:13 NW 13 10.00 Fair CLR 50 34.2 55% 46 29.78 0.0
03 05:53 NW 16 G 20 10.00 Fair CLR 50.4 34.2 54% 29.77 0.0
03 05:33 NW 12 10.00 Fair CLR 49.1 34.7 58% 45 29.77 0.0
03 05:13 NW 12 10.00 Fair CLR 49.5 34.7 57% 45 29.77 0.0
03 04:53 NW 12 10.00 Fair CLR 50.2 35.2 57% 29.77 0.0
03 04:33 NW 13 10.00 Fair CLR 51.4 35.6 55% 29.77 0.0
03 04:13 W 12 10.00 Fair CLR 52.3 35.8 53% 29.77 0.0
03 03:53 W 12 10.00 Fair CLR 53.2 35.4 51% 29.77 0.0
03 03:33 W 15 10.00 Fair CLR 55 34.7 46% 29.76 0.0
03 03:13 W 10 10.00 Fair CLR 56.1 34.3 44% 29.75 0.0
03 02:53 W 14 10.00 Partly Cloudy SCT120 56.8 34.2 43% 29.75 0.0
03 02:33 SW 13 10.00 Mostly Cloudy SCT100 BKN120 56.5 33.8 43% 29.75 0.0
03 01:53 W 12 G 16 10.00 Overcast OVC100 58.1 32.4 38% 29.77 0.0
03 01:33 W 15 10.00 Mostly Cloudy BKN100 58.8 32 36% 29.77 0.0
03 01:13 SW 16 10.00 Partly Cloudy SCT100 SCT120 56.7 31.1 38% 29.77 0.0
03 00:53 SW 16 10.00 Partly Cloudy SCT120 57.4 29.5 66.2 57.4 35% 29.77 0.0
03 00:33 SW 20 10.00 Partly Cloudy SCT090 SCT120 58.6 28.4 32% 29.76 0.0
03 00:13 SW 20 G 29 10.00 Mostly Cloudy BKN100 BKN120 59.2 27.9 30% 29.77 0.0
02 23:53 SW 16 10.00 Mostly Cloudy BKN100 BKN120 58.6 27.5 30% 29.77 0.0
02 23:33 SW 16 10.00 Partly Cloudy SCT100 58.8 26.8 29% 29.78 0.0
02 23:13 S 17 10.00 Partly Cloudy SCT100 59.4 26.8 29% 29.78 0.0
02 22:53 S 14 10.00 Fair CLR 59.9 27 28% 29.79 0.0
02 22:33 S 10 10.00 Partly Cloudy SCT100 60.1 27 28% 29.8 0.0
02 22:13 S 9 10.00 Mostly Cloudy BKN100 60.8 27 28% 29.8 0.0
02 21:53 S 10 10.00 Mostly Cloudy BKN110 60.8 28 29% 29.82 0.0
02 21:33 S 9 10.00 Overcast OVC100 60.6 28.8 30% 29.82 0.0
02 21:13 S 8 10.00 Overcast OVC100 61 28.6 29% 29.82 0.0
02 20:53 S 9 10.00 Mostly Cloudy BKN110 62.1 27.1 27% 29.83 0.0
02 20:33 S 8 10.00 Partly Cloudy SCT100 SCT120 62.4 27.3 26% 29.84 0.0
02 20:13 S 12 10.00 Mostly Cloudy SCT100 BKN120 63.5 26.4 24% 29.84 0.0
02 19:53 SW 12 10.00 Mostly Cloudy BKN110 64.4 25.5 23% 29.85 0.0
02 19:33 SW 17 G 23 10.00 Overcast OVC110 64.9 26.1 23% 29.86 0.0
02 19:13 SW 17 10.00 Overcast OVC110 65.5 25.5 22% 29.87 0.0
02 18:53 SW 21 10.00 Overcast and Breezy OVC110 66.2 26.8 68 61.5 23% 29.88 0.0
02 18:33 SW 20 G 25 10.00 Mostly Cloudy BKN120 66.4 27.1 23% 29.89 0.0
02 17:53 SW 17 10.00 Mostly Cloudy BKN120 66.6 27.3 23% 29.89 0.0
02 17:33 SW 17 G 25 10.00 Partly Cloudy SCT110 67.1 27.5 23% 29.89 0.0
02 17:13 SW 13 G 24 10.00 Overcast OVC100 65.8 28.8 25% 29.92 0.0
02 16:53 SW 17 G 23 10.00 Overcast OVC110 65.8 29.1 25% 29.92 0.0
02 16:33 SW 15 G 22 10.00 Overcast OVC110 65.7 28.4 25% 29.94 0.0
02 16:13 SW 10 G 20 10.00 Mostly Cloudy BKN120 65.1 28.6 25% 29.94 0.0
02 15:53 SW 14 G 25 10.00 Partly Cloudy SCT120 66 28.9 25% 29.95 0.0
02 15:33 SW 16 G 24 10.00 Partly Cloudy SCT080 66.6 28.4 24% 29.96 0.0
02 15:13 SW 20 G 26 10.00 Partly Cloudy SCT080 66.7 30 25% 29.97 0.0
02 14:53 W 12 G 20 10.00 Partly Cloudy SCT080 65.8 30.2 26% 29.98 0.0
02 14:33 SW 17 G 24 10.00 Fair CLR 65.5 30.6 27% 29.99 0.0
02 14:13 W 12 G 20 10.00 Fair CLR 64.4 29.1 27% 30 0.0
02 13:53 SW 13 G 22 10.00 Fair CLR 63.7 29.5 28% 30.01 0.0
02 13:33 W 14 G 20 10.00 Fair CLR 63 29.1 28% 30.02 0.0
02 13:13 SW 15 G 24 10.00 Fair CLR 62.1 29.5 29% 30.02 0.0
02 12:53 SW 18 G 22 10.00 Fair CLR 61.9 29.7 61.9 36.9 30% 30.04 0.0
02 12:33 W 14 G 17 10.00 Fair CLR 61 29.1 30% 30.05 0.0
02 12:13 W 12 G 18 10.00 Fair CLR 60.1 29.5 31% 30.06 0.0
02 11:53 W 10 G 21 10.00 Fair CLR 59 29.1 32% 30.06 0.0
02 11:33 SW 12 G 17 10.00 Fair CLR 57.9 27.7 32% 30.06 0.0
02 10:53 SW 13 G 20 10.00 Fair CLR 55.6 27 33% 30.08 0.0
02 10:33 SW 14 G 17 10.00 Fair CLR 54.7 27.7 35% 30.09 0.0
02 10:13 SW 14 G 20 10.00 Fair CLR 53.6 27 36% 30.09 0.0
02 09:53 SW 15 G 20 10.00 Fair CLR 52.5 26.1 36% 30.1 0.0
02 09:33 SW 16 G 22 10.00 Fair CLR 51.4 26.4 38% 30.1 0.0
02 09:13 SW 15 10.00 Fair CLR 50 27 41% 45 30.1 0.0
02 08:53 SW 15 10.00 Fair CLR 48.4 27.1 44% 43 30.1 0.0
02 08:33 SW 13 10.00 Fair CLR 46.8 27.7 48% 42 30.11 0.0
02 08:13 SW 14 10.00 Fair CLR 45 27.7 51% 39 30.11 0.0
02 07:53 SW 12 10.00 Fair CLR 44.1 27.3 52% 39 30.11 0.0
02 07:33 SW 8 10.00 Fair CLR 41 27.9 60% 36 30.12 0.0
02 07:13 SW 10 10.00 Fair CLR 39 26.6 61% 33 30.12 0.0
02 06:53 SW 7 10.00 Fair CLR 36.3 26.1 39.4 33.8 66% 31 30.12 0.0
02 06:33 SW 5 10.00 Fair CLR 35.1 25.5 68% 32 30.11 0.0
02 06:13 SW 6 10.00 Fair CLR 34 25.2 70% 29 30.12 0.0
02 05:53 SW 7 10.00 Fair CLR 34.7 24.8 67% 29 30.12 0.0
02 05:33 SW 5 10.00 Fair CLR 34.3 25.2 69% 31 30.12 0.0
02 05:13 SW 6 10.00 Fair CLR 35.1 24.8 66% 31 30.12 0.0
02 04:53 W 7 10.00 Fair CLR 36 24.8 64% 31 30.13 0.0
02 04:33 W 8 10.00 Fair CLR 39.2 24.8 56% 34 30.12 0.0
02 04:13 W 8 10.00 Fair CLR 39.2 24.6 56% 34 30.12 0.0
02 03:53 W 7 10.00 Fair CLR 36.1 25.3 65% 31 30.12 0.0
02 03:33 W 3 10.00 Fair CLR 34.2 25 69% 30.12 0.0
02 03:13 Calm 10.00 Fair CLR 34 24.8 69% 30.12 0.0
02 02:53 W 3 10.00 Fair CLR 35.1 25.5 68% 30.12 0.0
02 02:33 W 5 10.00 Fair CLR 34.9 25.2 68% 31 30.12 0.0
02 02:13 W 6 10.00 Fair CLR 35.4 25.5 67% 31 30.13 0.0
02 01:53 W 3 10.00 Fair CLR 35.6 25.7 67% 30.13 0.0
02 01:33 Calm 10.00 Fair CLR 37 25.7 64% 30.13 0.0
02 01:13 W 5 10.00 Fair CLR 35.2 25.7 68% 32 30.13 0.0
02 00:53 W 5 10.00 Fair CLR 36.9 25.9 50.5 36.3 65% 34 30.13 0.0
02 00:33 W 6 10.00 Partly Cloudy SCT048 SCT055 37.4 25.7 63% 33 30.13 0.0
02 00:13 W 3 10.00 Fair CLR 36.7 26.1 65% 30.13 0.0
01 23:53 W 5 10.00 Fair CLR 38.8 26.1 60% 36 30.13 0.0
01 23:33 W 3 10.00 Fair CLR 38.8 25.7 59% 30.13 0.0
01 23:13 W 5 10.00 Fair CLR 39.4 25.5 58% 37 30.13 0.0
01 22:53 W 5 10.00 Fair CLR 40.6 25.7 55% 38 30.13 0.0
01 22:33 W 5 10.00 Fair CLR 40.1 25.7 56% 37 30.13 0.0
01 22:13 W 3 10.00 Fair CLR 40.1 25.3 56% 30.13 0.0
01 21:53 NW 3 10.00 Fair CLR 42.1 26.2 54% 30.13 0.0
01 21:33 NW 3 10.00 Fair CLR 42.1 25.9 53% 30.13 0.0
01 21:13 N 3 10.00 Fair CLR 43.3 25 48% 30.13 0.0
01 20:53 NW 6 10.00 Fair CLR 45.3 23.9 43% 43 30.12 0.0
Date Time (cdt) Wind (mph) Vis. (mi.) Weather Sky Cond. Air Dwpt Max. Min. Relative Humidity Wind Chill (°F) Heat Index (°F) altimeter (in) sea level (mb) 1 hr 3 hr 6 hr
6 hour
Temperature (ºF) Pressure Precipitation (in)